createdAt,value
2023-02-13T04:31:52.666Z,99.90
2023-02-13T04:42:28.268Z,99.90
2023-02-13T04:53:03.846Z,99.90
2023-02-13T05:03:39.249Z,99.90
2023-02-13T05:14:15.092Z,99.90
2023-02-13T05:24:50.681Z,99.90
2023-02-13T05:35:25.985Z,99.90
2023-02-13T05:46:03.480Z,99.90
2023-02-13T05:56:39.218Z,99.90
2023-02-13T06:07:14.750Z,99.90
2023-02-13T06:17:50.558Z,99.90
2023-02-13T06:28:26.472Z,99.90
2023-02-13T06:39:01.940Z,99.90
2023-02-13T06:49:37.846Z,99.90
2023-02-13T07:00:15.716Z,99.90
2023-02-13T07:10:51.438Z,99.90
2023-02-13T07:21:27.226Z,99.90
2023-02-13T07:32:02.822Z,84.70
2023-02-13T07:42:38.708Z,32.80
2023-02-13T07:53:14.291Z,59.10
2023-02-13T08:03:51.272Z,26.70
2023-02-13T08:14:27.691Z,12.10
2023-02-13T08:25:03.921Z,7.60
2023-02-13T08:35:39.513Z,7.90
2023-02-13T08:46:16.615Z,7.10
2023-02-13T08:56:52.297Z,5.50
2023-02-13T09:07:27.876Z,3.30
2023-02-13T09:18:03.457Z,2.30
2023-02-13T09:28:40.416Z,5.40
2023-02-13T09:39:16.789Z,1.00
2023-02-13T09:49:56.552Z,3.10
2023-02-13T10:00:40.362Z,1.00
2023-02-13T10:11:32.654Z,1.00
2023-02-13T10:22:16.599Z,1.00
2023-02-13T10:33:19.581Z,1.00
2023-02-13T10:44:23.753Z,1.00
2023-02-13T10:55:23.435Z,1.00
2023-02-13T11:06:01.233Z,1.00
2023-02-13T11:17:01.926Z,1.00
2023-02-13T11:27:39.365Z,8.40
2023-02-13T11:38:20.757Z,11.40
2023-02-13T11:48:57.642Z,12.90
2023-02-13T11:59:41.398Z,15.90
2023-02-13T12:10:27.486Z,17.40
2023-02-13T12:21:21.916Z,18.20
2023-02-13T12:32:18.536Z,19.60
2023-02-13T12:43:21.893Z,19.00
2023-02-13T12:54:07.713Z,20.10
2023-02-13T13:05:37.587Z,19.40
2023-02-13T13:16:20.188Z,19.30
2023-02-13T13:26:57.314Z,19.60
2023-02-13T13:37:43.084Z,20.00
2023-02-13T13:48:59.818Z,20.00
2023-02-13T13:59:37.950Z,20.50
2023-02-13T14:10:25.832Z,20.00
2023-02-13T14:21:03.654Z,19.10
2023-02-13T14:31:43.086Z,19.30
2023-02-13T14:42:28.218Z,18.10
2023-02-13T14:53:14.197Z,17.70
2023-02-13T15:03:57.142Z,17.80
2023-02-13T15:14:36.870Z,18.60
2023-02-13T15:25:36.181Z,18.90
2023-02-13T15:36:27.606Z,19.20
2023-02-13T15:47:07.432Z,20.10
2023-02-13T15:57:43.150Z,20.90
2023-02-13T16:08:33.408Z,21.50
2023-02-13T16:19:23.058Z,23.70
2023-02-13T16:30:07.460Z,25.60
2023-02-13T16:40:44.384Z,27.60
2023-02-13T16:51:29.930Z,31.20
2023-02-13T17:02:21.604Z,32.90
2023-02-13T17:13:01.357Z,35.40
2023-02-13T17:23:36.887Z,41.50
2023-02-13T17:34:12.498Z,47.80
2023-02-13T17:44:47.945Z,53.10
2023-02-13T17:55:26.217Z,59.50
2023-02-13T18:06:01.928Z,62.30
2023-02-13T18:16:38.124Z,66.40
2023-02-13T18:27:13.565Z,71.10
2023-02-13T18:37:49.579Z,73.70
2023-02-13T18:48:25.232Z,76.90
2023-02-13T18:59:00.853Z,78.70
2023-02-13T19:09:40.149Z,83.70
2023-02-13T19:20:16.898Z,85.80
2023-02-13T19:30:52.528Z,83.90
2023-02-13T19:41:28.983Z,90.90
2023-02-13T19:52:04.777Z,90.30
2023-02-13T20:02:40.657Z,97.00
2023-02-13T20:13:16.494Z,99.90
2023-02-13T20:23:52.341Z,99.90
2023-02-13T20:34:31.545Z,99.90
2023-02-13T20:45:09.874Z,99.90
2023-02-13T20:55:45.482Z,99.90
2023-02-13T21:06:32.828Z,99.90
2023-02-13T21:17:09.587Z,99.90
2023-02-13T21:27:45.156Z,99.90
2023-02-13T21:38:20.947Z,99.90
2023-02-13T21:49:03.580Z,99.90
2023-02-13T21:59:39.038Z,99.90
2023-02-13T22:10:14.806Z,99.90
2023-02-13T22:20:51.165Z,99.90
